Time;durP1;ratioP1;P1;durP2;ratioP2;P2;SDS_P1;SDS_P2;PMS_P1;PMS_P2;Temp;Humidity;BMP_temperature;BMP_pressure;BME280_temperature;BME280_humidity;BME280_pressure;Samples;Min_cycle;Max_cycle;Signal;HPM_P1;HPM_P2
2022/07/23 00:02:12;;;;;;;6.30;4.60;;;27.00;55.80;;;;;;7385284;19;20476;-51
2022/07/23 00:04:41;;;;;;;5.10;4.57;;;26.90;56.10;;;;;;7386106;19;20409;-51
2022/07/23 00:07:11;;;;;;;5.83;4.97;;;26.70;56.70;;;;;;7390661;19;20368;-50
2022/07/23 00:09:42;;;;;;;5.53;4.77;;;26.70;56.80;;;;;;7389376;19;20380;-51
2022/07/23 00:12:12;;;;;;;5.13;4.70;;;26.50;56.80;;;;;;7389928;19;20405;-51
2022/07/23 00:14:42;;;;;;;4.50;4.10;;;26.60;56.40;;;;;;7386732;19;20728;-51
2022/07/23 00:17:18;;;;;;;6.03;5.17;;;26.70;56.30;;;;;;7388002;19;20434;-51
2022/07/23 00:19:49;;;;;;;7.57;5.50;;;26.70;56.30;;;;;;7390030;19;20364;-51
2022/07/23 00:22:18;;;;;;;5.43;4.00;;;26.70;56.00;;;;;;7386239;19;20413;-51
2022/07/23 00:24:48;;;;;;;5.00;4.60;;;26.80;56.10;;;;;;7380251;19;20368;-51
2022/07/23 00:27:17;;;;;;;4.57;4.17;;;26.80;56.00;;;;;;7374303;19;20383;-51
2022/07/23 00:29:47;;;;;;;5.40;4.20;;;26.80;55.90;;;;;;7380109;19;20799;-50
2022/07/23 00:32:21;;;;;;;4.50;4.00;;;26.60;55.80;;;;;;7378633;19;20732;-51
2022/07/23 00:34:51;;;;;;;4.67;4.27;;;26.40;56.30;;;;;;7380195;19;20356;-51
2022/07/23 00:37:20;;;;;;;4.77;4.27;;;26.40;56.70;;;;;;7369525;19;20395;-51
2022/07/23 00:39:49;;;;;;;4.00;3.23;;;26.30;56.80;;;;;;7382586;19;20387;-51
2022/07/23 00:42:19;;;;;;;4.27;3.93;;;26.10;59.30;;;;;;7383782;19;20381;-51
2022/07/23 00:44:51;;;;;;;4.60;4.20;;;26.00;61.90;;;;;;7382262;19;20376;-51
2022/07/23 00:47:25;;;;;;;5.80;4.47;;;25.80;64.00;;;;;;7379319;19;20388;-51
2022/07/23 00:49:55;;;;;;;4.33;3.80;;;25.50;65.00;;;;;;7383494;19;20391;-47
2022/07/23 00:52:25;;;;;;;5.47;4.00;;;25.50;65.80;;;;;;7382352;19;20397;-47
2022/07/23 00:54:54;;;;;;;4.20;3.80;;;25.60;65.70;;;;;;7380927;19;20392;-47
2022/07/23 00:57:26;;;;;;;7.73;4.80;;;25.70;64.00;;;;;;7377228;19;20375;-47
2022/07/23 00:59:57;;;;;;;4.80;4.03;;;25.80;65.20;;;;;;7379929;19;20797;-48
2022/07/23 01:02:30;;;;;;;4.87;4.37;;;25.60;64.00;;;;;;7378515;19;20371;-48
2022/07/23 01:05:00;;;;;;;4.83;4.40;;;25.60;64.40;;;;;;7389180;19;20441;-48
2022/07/23 01:07:30;;;;;;;4.60;4.20;;;25.60;63.90;;;;;;7382355;19;20376;-48
2022/07/23 01:10:01;;;;;;;4.30;3.90;;;25.60;65.10;;;;;;7382350;19;20373;-47
2022/07/23 01:12:30;;;;;;;4.47;4.07;;;25.60;63.30;;;;;;7375895;19;20419;-48
2022/07/23 01:15:01;;;;;;;6.27;4.43;;;25.70;62.20;;;;;;7376479;19;21213;-47
2022/07/23 01:17:36;;;;;;;5.47;4.37;;;25.70;62.90;;;;;;7385064;19;20379;-48
2022/07/23 01:20:07;;;;;;;5.10;4.30;;;25.90;62.50;;;;;;7386699;19;20376;-51
2022/07/23 01:22:39;;;;;;;4.33;3.93;;;26.00;62.00;;;;;;7375976;19;20469;-52
2022/07/23 01:25:10;;;;;;;4.70;4.30;;;25.90;62.80;;;;;;7380136;19;20372;-50
2022/07/23 01:27:42;;;;;;;5.10;4.60;;;25.70;62.30;;;;;;7364100;19;20375;-52
2022/07/23 01:30:13;;;;;;;4.83;4.43;;;25.70;62.40;;;;;;7370254;19;20384;-51
2022/07/23 01:32:45;;;;;;;4.30;3.97;;;25.50;62.60;;;;;;7377110;19;20798;-51
2022/07/23 01:35:17;;;;;;;4.57;4.07;;;25.50;62.80;;;;;;7377155;19;20405;-51
2022/07/23 01:37:49;;;;;;;6.00;4.27;;;25.20;63.10;;;;;;7380613;19;22978;-51
2022/07/23 01:40:19;;;;;;;4.70;4.30;;;25.20;63.30;;;;;;7380091;19;20387;-51
2022/07/23 01:42:51;;;;;;;4.77;4.23;;;25.20;63.40;;;;;;7375612;19;20383;-51
2022/07/23 01:45:22;;;;;;;4.40;4.00;;;25.20;63.10;;;;;;7378803;19;20387;-52
2022/07/23 01:47:54;;;;;;;6.47;5.10;;;25.30;63.70;;;;;;7384754;19;20409;-51
2022/07/23 01:50:26;;;;;;;4.67;4.27;;;25.50;64.30;;;;;;7384204;19;20816;-51
2022/07/23 01:53:27;;;;;;;4.37;3.97;;;25.60;63.20;;;;;;7379481;19;20412;-51
2022/07/23 01:55:56;;;;;;;4.53;4.13;;;25.70;63.40;;;;;;7382472;19;20380;-51
2022/07/23 01:58:26;;;;;;;5.03;4.43;;;25.70;63.30;;;;;;7380380;19;20380;-52
2022/07/23 02:00:55;;;;;;;4.83;4.43;;;25.70;64.70;;;;;;7382798;19;20440;-51
2022/07/23 02:03:26;;;;;;;4.70;4.30;;;25.50;64.10;;;;;;7383092;19;20423;-51
2022/07/23 02:05:56;;;;;;;5.53;4.80;;;25.30;64.90;;;;;;7386047;19;21429;-51
2022/07/23 02:08:28;;;;;;;5.00;4.50;;;25.20;64.30;;;;;;7380078;19;20802;-51
2022/07/23 02:10:57;;;;;;;5.07;4.57;;;25.30;64.10;;;;;;7384401;19;20854;-52
2022/07/23 02:13:29;;;;;;;4.30;3.80;;;25.40;63.80;;;;;;7350931;19;20405;-51
2022/07/23 02:15:58;;;;;;;4.90;4.50;;;25.60;63.50;;;;;;7367995;19;20380;-51
2022/07/23 02:18:27;;;;;;;4.00;3.70;;;25.70;62.10;;;;;;7378675;19;20367;-51
2022/07/23 02:20:57;;;;;;;5.20;4.70;;;25.90;61.70;;;;;;7374775;19;20404;-51
2022/07/23 02:23:29;;;;;;;6.47;4.30;;;26.00;61.30;;;;;;7380054;19;20904;-51
2022/07/23 02:25:58;;;;;;;6.60;4.27;;;25.90;62.10;;;;;;7377929;19;20392;-51
2022/07/23 02:28:28;;;;;;;4.87;4.33;;;25.60;64.10;;;;;;7377790;19;20372;-50
2022/07/23 02:30:58;;;;;;;4.77;4.13;;;25.30;66.80;;;;;;7377043;19;20942;-50
2022/07/23 02:33:29;;;;;;;5.63;4.00;;;25.10;68.50;;;;;;7374169;19;21194;-51
2022/07/23 02:35:59;;;;;;;5.30;4.80;;;25.10;69.30;;;;;;7369932;19;20929;-51
2022/07/23 02:38:31;;;;;;;5.17;3.90;;;25.10;67.90;;;;;;7377331;19;20384;-51
2022/07/23 02:41:01;;;;;;;5.30;4.40;;;24.90;70.70;;;;;;7370517;19;20380;-51
2022/07/23 02:43:30;;;;;;;6.97;4.60;;;24.80;70.90;;;;;;7359331;19;20412;-51
2022/07/23 02:46:00;;;;;;;6.57;4.70;;;24.70;70.30;;;;;;7375536;19;20384;-51
2022/07/23 02:48:30;;;;;;;4.33;3.93;;;24.60;69.20;;;;;;7375658;19;20378;-51
2022/07/23 02:51:00;;;;;;;4.63;4.10;;;24.60;70.10;;;;;;7379332;19;20376;-51
2022/07/23 02:53:38;;;;;;;5.00;4.50;;;24.60;70.10;;;;;;7379044;19;20901;-51
2022/07/23 02:56:08;;;;;;;5.03;3.90;;;24.60;69.10;;;;;;7371874;19;20381;-51
2022/07/23 02:58:37;;;;;;;5.00;4.50;;;24.60;70.00;;;;;;7380323;19;20372;-51
2022/07/23 03:01:07;;;;;;;4.90;4.27;;;24.50;70.60;;;;;;7378698;19;20425;-51
2022/07/23 03:03:37;;;;;;;4.97;4.57;;;24.60;70.00;;;;;;7378658;19;20388;-51
2022/07/23 03:06:08;;;;;;;5.37;4.80;;;24.60;70.40;;;;;;7380984;19;20372;-51
2022/07/23 03:08:41;;;;;;;5.13;4.73;;;24.60;70.30;;;;;;7374507;19;20371;-51
2022/07/23 03:11:11;;;;;;;4.83;4.43;;;24.60;70.50;;;;;;7348621;19;20925;-51
2022/07/23 03:13:42;;;;;;;5.17;4.67;;;24.60;69.80;;;;;;7373284;19;20801;-51
2022/07/23 03:16:11;;;;;;;7.33;4.67;;;24.60;70.00;;;;;;7373795;19;20380;-51
2022/07/23 03:18:41;;;;;;;6.13;4.60;;;24.70;70.00;;;;;;7367352;19;20383;-50
2022/07/23 03:21:11;;;;;;;5.60;5.10;;;24.80;69.40;;;;;;7375488;19;21057;-51
2022/07/23 03:23:44;;;;;;;4.73;3.90;;;24.80;68.60;;;;;;7373555;19;20468;-51
2022/07/23 03:26:13;;;;;;;5.40;4.67;;;24.90;68.70;;;;;;7372248;19;20384;-50
2022/07/23 03:28:42;;;;;;;6.00;4.70;;;24.80;69.70;;;;;;7375228;19;20372;-50
2022/07/23 03:31:12;;;;;;;9.37;5.03;;;24.70;70.90;;;;;;7377406;19;20372;-50
2022/07/23 03:33:42;;;;;;;5.47;4.97;;;24.60;71.80;;;;;;7371521;19;20940;-51
2022/07/23 03:36:12;;;;;;;8.10;4.83;;;24.60;72.80;;;;;;7368960;19;20475;-50
2022/07/23 03:38:47;;;;;;;6.20;5.13;;;24.30;73.60;;;;;;7362407;19;20368;-51
2022/07/23 03:41:19;;;;;;;5.23;4.73;;;24.10;75.30;;;;;;7368108;19;20451;-51
2022/07/23 03:43:48;;;;;;;7.00;5.00;;;24.20;76.00;;;;;;7371103;19;20368;-51
2022/07/23 03:46:18;;;;;;;5.10;4.67;;;24.10;77.60;;;;;;7370727;19;20514;-50
2022/07/23 03:48:47;;;;;;;5.47;4.90;;;24.20;76.70;;;;;;7377578;19;20435;-50
2022/07/23 03:51:17;;;;;;;6.83;3.93;;;24.30;76.20;;;;;;7379762;19;21087;-50
2022/07/23 03:53:49;;;;;;;4.93;4.43;;;24.30;76.30;;;;;;7371975;19;20380;-50
2022/07/23 03:56:19;;;;;;;4.83;4.27;;;24.30;76.90;;;;;;7371803;19;20405;-50
2022/07/23 03:58:49;;;;;;;4.80;4.37;;;24.20;77.00;;;;;;7377207;19;20368;-50
2022/07/23 04:01:18;;;;;;;4.93;4.40;;;24.20;76.70;;;;;;7376237;19;20443;-51
2022/07/23 04:03:48;;;;;;;6.93;4.63;;;24.10;76.90;;;;;;7366153;19;20368;-52
2022/07/23 04:06:17;;;;;;;6.00;5.40;;;24.00;77.60;;;;;;7353703;19;20882;-51
2022/07/23 04:08:49;;;;;;;6.13;4.80;;;23.70;79.00;;;;;;7371040;19;20377;-51
2022/07/23 04:11:19;;;;;;;5.93;5.30;;;23.50;80.70;;;;;;7373883;19;20380;-51
2022/07/23 04:13:51;;;;;;;10.13;5.43;;;23.40;80.20;;;;;;7378826;19;20383;-51
2022/07/23 04:16:21;;;;;;;6.37;5.60;;;23.40;80.30;;;;;;7373963;19;20377;-50
2022/07/23 04:18:52;;;;;;;8.30;5.73;;;23.40;79.00;;;;;;7370727;19;20391;-51
2022/07/23 04:21:25;;;;;;;5.60;5.10;;;23.50;78.70;;;;;;7374755;19;20954;-51
2022/07/23 04:23:57;;;;;;;6.00;5.47;;;23.70;78.10;;;;;;7370037;19;20383;-51
2022/07/23 04:26:27;;;;;;;5.87;5.37;;;23.90;76.90;;;;;;7369494;19;20431;-51
2022/07/23 04:28:58;;;;;;;6.03;4.53;;;23.80;76.20;;;;;;7372030;19;20384;-51
2022/07/23 04:31:30;;;;;;;6.50;5.20;;;23.80;75.90;;;;;;7357181;19;20364;-47
2022/07/23 04:34:00;;;;;;;5.30;4.67;;;23.90;75.60;;;;;;7354874;19;20378;-47
2022/07/23 04:36:29;;;;;;;5.13;4.63;;;24.00;75.60;;;;;;7376588;19;20371;-47
2022/07/23 04:39:01;;;;;;;4.70;4.30;;;24.20;74.40;;;;;;7380647;19;20390;-49
2022/07/23 04:41:31;;;;;;;7.50;5.00;;;24.40;73.30;;;;;;7384221;19;20416;-47
2022/07/23 04:44:00;;;;;;;6.20;5.50;;;24.60;71.20;;;;;;7381206;19;20420;-48
2022/07/23 04:46:30;;;;;;;6.20;5.37;;;24.80;70.70;;;;;;7379745;19;20431;-48
2022/07/23 04:49:00;;;;;;;6.70;5.10;;;24.90;69.30;;;;;;7383311;19;20725;-47
2022/07/23 04:51:30;;;;;;;6.47;4.70;;;25.00;69.40;;;;;;7382005;19;20375;-48
2022/07/23 04:54:02;;;;;;;6.83;5.27;;;25.10;69.80;;;;;;7379730;19;20464;-48
2022/07/23 04:56:32;;;;;;;5.67;5.17;;;25.00;69.80;;;;;;7379247;19;20380;-48
2022/07/23 04:59:01;;;;;;;5.80;4.80;;;25.10;70.00;;;;;;7362783;19;20372;-47
2022/07/23 05:01:34;;;;;;;5.90;5.30;;;25.00;70.30;;;;;;7367071;19;20823;-51
2022/07/23 05:04:06;;;;;;;5.30;4.47;;;25.10;68.40;;;;;;7378902;19;20421;-51
2022/07/23 05:06:38;;;;;;;5.80;5.20;;;25.10;68.70;;;;;;7378721;19;20799;-51
2022/07/23 05:09:11;;;;;;;7.70;5.13;;;25.30;68.20;;;;;;7382207;19;20372;-51
2022/07/23 05:11:40;;;;;;;6.93;4.93;;;25.40;68.60;;;;;;7380328;19;20393;-51
2022/07/23 05:14:12;;;;;;;7.13;4.53;;;25.50;68.00;;;;;;7381829;19;20368;-51
2022/07/23 05:16:41;;;;;;;5.20;4.70;;;25.60;66.70;;;;;;7379108;19;20368;-51
2022/07/23 05:19:16;;;;;;;5.80;5.20;;;25.60;66.90;;;;;;7373474;19;20963;-51
2022/07/23 05:21:46;;;;;;;5.67;5.07;;;25.50;66.90;;;;;;7376382;19;20372;-51
2022/07/23 05:24:19;;;;;;;5.73;5.23;;;25.50;67.40;;;;;;7376406;19;20399;-51
2022/07/23 05:26:49;;;;;;;5.73;5.13;;;25.50;66.80;;;;;;7382904;19;20380;-51
2022/07/23 05:29:21;;;;;;;5.40;4.90;;;25.20;67.50;;;;;;7364708;19;20506;-51
2022/07/23 05:31:51;;;;;;;6.77;6.03;;;24.90;68.80;;;;;;7360870;19;20432;-47
2022/07/23 05:34:20;;;;;;;5.53;5.03;;;24.70;70.10;;;;;;7376120;19;20800;-48
2022/07/23 05:36:51;;;;;;;6.20;5.53;;;24.80;70.00;;;;;;7378627;19;20368;-47
2022/07/23 05:39:23;;;;;;;5.87;5.27;;;25.10;68.90;;;;;;7377578;19;20409;-48
2022/07/23 05:41:53;;;;;;;6.93;5.53;;;25.30;68.20;;;;;;7378874;19;20392;-48
2022/07/23 05:44:23;;;;;;;5.90;5.27;;;25.30;68.00;;;;;;7379857;19;20377;-47
2022/07/23 05:46:53;;;;;;;5.60;5.10;;;25.30;68.00;;;;;;7381807;19;20949;-47
2022/07/23 05:49:24;;;;;;;6.23;5.70;;;25.10;68.30;;;;;;7378376;19;20398;-48
2022/07/23 05:52:26;;;;;;;6.47;5.87;;;25.00;69.10;;;;;;7381197;19;20388;-48
2022/07/23 05:55:20;;;;;;;5.63;5.03;;;25.20;69.00;;;;;;7379223;19;20463;-47
2022/07/23 05:57:49;;;;;;;5.93;5.33;;;25.40;67.80;;;;;;7375836;19;20964;-48
2022/07/23 06:00:21;;;;;;;7.77;5.83;;;25.60;67.20;;;;;;7371452;19;20444;-48
2022/07/23 06:02:53;;;;;;;5.60;5.10;;;25.70;67.00;;;;;;7383603;19;20750;-48
2022/07/23 06:05:22;;;;;;;6.57;5.57;;;25.90;66.40;;;;;;7378899;19;20785;-48
2022/07/23 06:07:54;;;;;;;6.67;5.53;;;26.00;65.30;;;;;;7382800;19;21000;-48
2022/07/23 06:10:26;;;;;;;5.83;5.33;;;26.10;64.60;;;;;;7384433;19;20364;-48
2022/07/23 06:12:56;;;;;;;6.00;5.27;;;26.20;64.10;;;;;;7356676;19;20380;-48
2022/07/23 06:15:27;;;;;;;5.47;4.97;;;26.20;64.10;;;;;;7363718;19;20389;-48
2022/07/23 06:17:59;;;;;;;7.73;5.97;;;26.30;63.60;;;;;;7380736;19;20388;-48
2022/07/23 06:20:29;;;;;;;6.10;5.43;;;26.40;63.20;;;;;;7376139;19;20368;-48
2022/07/23 06:23:00;;;;;;;6.13;5.43;;;26.50;63.60;;;;;;7378221;19;20369;-48
2022/07/23 06:25:33;;;;;;;5.87;5.30;;;26.50;63.10;;;;;;7373259;19;20387;-48
2022/07/23 06:28:03;;;;;;;5.80;5.30;;;26.70;62.20;;;;;;7383019;19;20388;-48
2022/07/23 06:30:32;;;;;;;5.60;5.10;;;26.70;61.30;;;;;;7377215;19;20372;-48
2022/07/23 06:33:02;;;;;;;6.60;5.40;;;26.70;61.50;;;;;;7381143;19;20396;-48
2022/07/23 06:35:33;;;;;;;5.93;5.43;;;26.70;60.20;;;;;;7381623;19;20376;-48
2022/07/23 06:38:03;;;;;;;5.63;5.03;;;26.70;60.40;;;;;;7374720;19;20840;-48
2022/07/23 06:40:35;;;;;;;5.80;5.30;;;26.70;60.60;;;;;;7372490;19;20376;-52
2022/07/23 06:43:05;;;;;;;7.60;5.67;;;26.70;60.90;;;;;;7371168;19;21036;-51
2022/07/23 06:45:39;;;;;;;7.00;6.17;;;26.80;61.50;;;;;;7378650;19;20751;-51
2022/07/23 06:48:09;;;;;;;6.50;5.37;;;26.90;60.10;;;;;;7377186;19;20771;-52
2022/07/23 06:50:38;;;;;;;8.93;5.77;;;26.90;60.30;;;;;;7382415;19;20444;-52
2022/07/23 06:53:10;;;;;;;6.17;5.33;;;26.90;59.80;;;;;;7382487;19;20380;-51
2022/07/23 06:55:47;;;;;;;6.37;5.77;;;27.00;60.30;;;;;;7377647;19;20388;-51
2022/07/23 06:58:16;;;;;;;5.60;5.10;;;27.00;59.90;;;;;;7373258;19;20897;-51
2022/07/23 07:00:47;;;;;;;5.77;5.27;;;27.00;59.50;;;;;;7380929;19;20829;-51
2022/07/23 07:03:19;;;;;;;6.30;5.70;;;26.80;60.40;;;;;;7377047;19;20742;-51
2022/07/23 07:05:49;;;;;;;5.97;5.37;;;26.70;59.70;;;;;;7382231;19;20372;-51
2022/07/23 07:08:19;;;;;;;6.50;5.73;;;26.80;59.20;;;;;;7378487;19;20376;-51
2022/07/23 07:10:51;;;;;;;6.47;5.30;;;26.90;59.10;;;;;;7375947;19;20929;-51
2022/07/23 07:13:20;;;;;;;6.53;5.27;;;26.80;58.80;;;;;;7380127;19;20425;-51
2022/07/23 07:15:52;;;;;;;6.70;6.00;;;26.80;58.80;;;;;;7377745;19;20444;-51
2022/07/23 07:18:22;;;;;;;6.93;6.23;;;26.80;58.70;;;;;;7376255;19;20379;-51
2022/07/23 07:20:52;;;;;;;10.23;5.57;;;26.90;58.40;;;;;;7369499;19;20425;-52
2022/07/23 07:23:23;;;;;;;5.60;5.00;;;26.80;59.00;;;;;;7374809;19;20383;-51
2022/07/23 07:25:56;;;;;;;7.40;6.10;;;26.80;58.60;;;;;;7369259;19;20399;-51
2022/07/23 07:28:25;;;;;;;5.97;5.37;;;26.70;58.70;;;;;;7368299;19;20379;-52
2022/07/23 07:30:54;;;;;;;6.20;5.57;;;26.70;59.10;;;;;;7365955;19;21171;-52
2022/07/23 07:33:24;;;;;;;6.37;5.77;;;26.70;59.50;;;;;;7368455;19;20381;-51
2022/07/23 07:35:54;;;;;;;6.70;5.50;;;26.50;60.10;;;;;;7374151;19;20405;-52
2022/07/23 07:38:23;;;;;;;6.40;5.90;;;26.40;61.40;;;;;;7368082;19;20380;-51
2022/07/23 07:40:55;;;;;;;7.87;6.63;;;26.30;61.80;;;;;;7374002;19;20369;-51
2022/07/23 07:43:25;;;;;;;6.40;5.60;;;26.20;63.40;;;;;;7374742;19;20380;-51
2022/07/23 07:45:54;;;;;;;6.13;5.53;;;26.10;65.00;;;;;;7365646;19;20422;-51
2022/07/23 07:48:24;;;;;;;6.77;6.17;;;26.40;65.60;;;;;;7372273;19;20368;-51
2022/07/23 07:50:53;;;;;;;6.47;5.97;;;26.50;64.60;;;;;;7377395;19;20395;-51
2022/07/23 07:53:25;;;;;;;6.90;6.20;;;26.40;65.30;;;;;;7378172;19;20376;-50
2022/07/23 07:55:57;;;;;;;6.23;5.63;;;26.60;65.60;;;;;;7371131;19;20376;-51
2022/07/23 07:58:27;;;;;;;6.60;5.90;;;26.70;63.90;;;;;;7346964;19;20388;-50
2022/07/23 08:00:56;;;;;;;6.10;5.50;;;26.70;62.70;;;;;;7359217;19;20416;-50
2022/07/23 08:03:26;;;;;;;6.47;5.87;;;26.70;62.30;;;;;;7359904;19;20392;-50
2022/07/23 08:05:55;;;;;;;5.90;4.83;;;26.80;61.50;;;;;;7372799;19;21012;-50
2022/07/23 08:08:25;;;;;;;6.43;4.80;;;26.90;61.60;;;;;;7378143;19;20364;-51
2022/07/23 08:10:57;;;;;;;7.00;6.30;;;27.00;61.00;;;;;;7373761;19;20368;-49
2022/07/23 08:13:26;;;;;;;6.50;5.80;;;27.10;61.20;;;;;;7376364;19;20409;-50
2022/07/23 08:15:56;;;;;;;6.77;5.23;;;27.10;60.70;;;;;;7381249;19;20368;-50
2022/07/23 08:18:25;;;;;;;6.23;5.63;;;27.20;60.30;;;;;;7378637;19;20773;-50
2022/07/23 08:20:55;;;;;;;6.00;5.40;;;27.50;59.00;;;;;;7375202;19;20407;-49
2022/07/23 08:23:24;;;;;;;6.40;5.80;;;27.40;58.40;;;;;;7386644;19;20399;-50
2022/07/23 08:25:57;;;;;;;6.03;5.43;;;27.40;58.80;;;;;;7373629;19;20388;-49
2022/07/23 08:28:26;;;;;;;5.20;4.80;;;27.20;59.70;;;;;;7377812;19;20948;-49
2022/07/23 08:30:56;;;;;;;7.23;5.00;;;27.00;60.40;;;;;;7376672;19;20373;-50
2022/07/23 08:33:25;;;;;;;6.10;5.00;;;26.70;59.50;;;;;;7387242;19;21005;-51
2022/07/23 08:35:56;;;;;;;5.63;5.10;;;26.60;59.40;;;;;;7379223;19;20384;-50
2022/07/23 08:38:25;;;;;;;6.00;5.27;;;26.60;60.50;;;;;;7385589;19;20377;-51
2022/07/23 08:40:58;;;;;;;6.33;5.57;;;26.50;59.40;;;;;;7389183;19;20484;-48
2022/07/23 08:43:29;;;;;;;5.53;5.03;;;26.40;59.70;;;;;;7381745;19;20465;-48
2022/07/23 08:46:01;;;;;;;6.50;5.87;;;25.90;60.60;;;;;;7388082;19;20372;-48
2022/07/23 08:48:32;;;;;;;5.90;5.30;;;25.60;62.70;;;;;;7387065;19;20388;-48
2022/07/23 08:51:03;;;;;;;6.20;5.23;;;26.00;62.30;;;;;;7386143;19;20376;-48
2022/07/23 08:53:35;;;;;;;5.67;5.17;;;26.30;60.80;;;;;;7384264;19;20451;-48
2022/07/23 08:56:08;;;;;;;7.63;5.73;;;26.50;61.10;;;;;;7379053;19;20380;-48
2022/07/23 08:58:37;;;;;;;5.80;5.30;;;26.90;59.50;;;;;;7373774;19;20364;-48
2022/07/23 09:01:07;;;;;;;5.77;5.30;;;27.10;59.20;;;;;;7373907;19;21078;-48
2022/07/23 09:03:39;;;;;;;5.90;5.40;;;27.50;57.70;;;;;;7379624;19;20372;-48
2022/07/23 09:06:09;;;;;;;6.33;5.40;;;27.50;56.90;;;;;;7381871;19;20380;-48
2022/07/23 09:08:41;;;;;;;6.80;5.10;;;27.80;57.50;;;;;;7378217;19;20364;-48
2022/07/23 09:11:16;;;;;;;5.77;5.13;;;28.00;55.80;;;;;;7368848;19;20377;-49
2022/07/23 09:13:52;;;;;;;5.67;5.07;;;28.20;55.50;;;;;;7360524;19;20391;-49
2022/07/23 09:16:26;;;;;;;5.80;5.30;;;28.00;54.70;;;;;;7356707;19;21081;-49
2022/07/23 09:18:57;;;;;;;6.23;4.87;;;27.80;54.50;;;;;;7372846;19;20374;-51
2022/07/23 09:21:28;;;;;;;5.87;5.37;;;27.60;55.50;;;;;;7382615;19;20731;-51
2022/07/23 09:24:02;;;;;;;5.60;5.10;;;28.00;54.60;;;;;;7384836;19;20421;-50
2022/07/23 09:26:39;;;;;;;6.43;5.50;;;28.00;53.70;;;;;;7385886;19;20392;-50
2022/07/23 09:29:11;;;;;;;6.00;5.40;;;28.40;53.10;;;;;;7389699;19;20384;-50
2022/07/23 09:31:50;;;;;;;6.77;6.17;;;28.80;52.40;;;;;;7384495;19;20380;-50
2022/07/23 09:34:24;;;;;;;5.40;4.90;;;29.20;52.60;;;;;;7385813;19;20384;-50
2022/07/23 09:36:55;;;;;;;5.57;5.03;;;29.60;52.60;;;;;;7389629;19;20407;-50
2022/07/23 09:39:31;;;;;;;8.43;7.57;;;29.80;50.70;;;;;;7388438;19;21024;-50
2022/07/23 09:42:16;;;;;;;6.23;5.53;;;30.00;49.70;;;;;;7385118;19;20379;-51
2022/07/23 09:44:53;;;;;;;5.93;5.43;;;30.10;49.80;;;;;;7375578;19;20360;-50
2022/07/23 09:47:24;;;;;;;5.33;4.83;;;30.20;48.50;;;;;;7385252;19;20387;-50
2022/07/23 09:50:05;;;;;;;6.30;5.63;;;30.40;49.30;;;;;;7388834;19;20380;-50
2022/07/23 09:52:36;;;;;;;5.10;4.60;;;30.60;48.50;;;;;;7388261;19;20769;-50
2022/07/23 09:55:08;;;;;;;5.27;4.77;;;30.60;47.60;;;;;;7388779;19;20380;-50
2022/07/23 09:57:42;;;;;;;5.20;4.73;;;30.60;49.00;;;;;;7376041;19;21077;-50
2022/07/23 10:00:15;;;;;;;5.30;4.80;;;30.80;48.30;;;;;;7369404;19;20428;-50
2022/07/23 10:02:48;;;;;;;5.60;5.10;;;30.80;47.50;;;;;;7379158;19;20368;-50
2022/07/23 10:05:34;;;;;;;5.50;5.10;;;30.80;49.00;;;;;;7383779;19;20385;-50
2022/07/23 10:08:25;;;;;;;5.73;5.20;;;31.00;47.20;;;;;;7385731;19;20843;-50
2022/07/23 10:11:16;;;;;;;6.63;6.00;;;30.90;48.20;;;;;;7387751;19;20376;-50
2022/07/23 10:14:20;;;;;;;5.67;5.17;;;31.10;47.60;;;;;;7379905;19;20400;-51
2022/07/23 10:17:00;;;;;;;5.40;4.90;;;31.20;48.20;;;;;;7386310;19;20419;-50
2022/07/23 10:19:30;;;;;;;6.63;5.23;;;31.30;47.90;;;;;;7374887;19;20468;-50
2022/07/23 10:22:03;;;;;;;5.10;4.70;;;31.60;47.50;;;;;;7383115;19;20379;-50
2022/07/23 10:24:48;;;;;;;5.63;5.03;;;31.90;47.90;;;;;;7384233;19;20428;-50
2022/07/23 10:27:48;;;;;;;5.40;5.00;;;32.00;45.60;;;;;;7381480;19;20387;-50
2022/07/23 10:30:27;;;;;;;6.27;5.70;;;32.10;46.90;;;;;;7373702;19;20921;-50
2022/07/23 10:33:20;;;;;;;5.03;4.53;;;32.30;46.20;;;;;;7383432;19;20369;-51
2022/07/23 10:36:04;;;;;;;5.87;4.70;;;32.40;44.30;;;;;;7382191;19;20396;-50
2022/07/23 10:38:39;;;;;;;6.43;5.70;;;32.20;46.50;;;;;;7385228;19;20758;-50
2022/07/23 10:41:09;;;;;;;4.40;4.00;;;32.10;45.70;;;;;;7381616;19;20668;-50
2022/07/23 10:43:38;;;;;;;5.37;4.83;;;32.20;45.00;;;;;;7384446;19;21096;-50
2022/07/23 10:46:31;;;;;;;5.37;4.97;;;32.10;45.10;;;;;;7373809;19;21008;-50
2022/07/23 10:49:30;;;;;;;5.60;5.10;;;32.40;45.80;;;;;;7384299;19;21024;-50
2022/07/23 10:52:24;;;;;;;5.00;4.47;;;32.50;44.50;;;;;;7386521;19;20368;-50
2022/07/23 10:54:57;;;;;;;5.17;4.67;;;32.70;42.20;;;;;;7383372;19;20853;-51
2022/07/23 10:57:28;;;;;;;6.20;5.27;;;32.80;42.40;;;;;;7386325;19;20413;-51
2022/07/23 11:00:17;;;;;;;5.13;4.63;;;32.80;43.20;;;;;;7383129;19;20449;-50
2022/07/23 11:02:54;;;;;;;8.87;5.50;;;32.90;42.20;;;;;;7385046;19;20388;-51
2022/07/23 11:05:25;;;;;;;5.07;4.67;;;32.80;41.40;;;;;;7382395;19;20455;-51
2022/07/23 11:08:14;;;;;;;5.63;5.00;;;32.90;44.20;;;;;;7379783;19;20387;-51
2022/07/23 11:10:46;;;;;;;6.63;5.00;;;33.00;43.50;;;;;;7380397;19;20992;-51
2022/07/23 11:13:47;;;;;;;5.63;5.13;;;32.90;42.90;;;;;;7380129;19;20368;-51
2022/07/23 11:16:23;;;;;;;5.47;4.90;;;32.70;42.20;;;;;;7373073;19;20391;-51
2022/07/23 11:19:10;;;;;;;4.80;4.40;;;32.30;44.90;;;;;;7380430;19;20714;-50
2022/07/23 11:21:56;;;;;;;6.40;5.80;;;32.40;44.00;;;;;;7387123;19;20372;-50
2022/07/23 11:24:27;;;;;;;5.90;5.40;;;32.60;43.80;;;;;;7379550;19;20455;-51
2022/07/23 11:27:04;;;;;;;5.43;4.93;;;32.60;45.00;;;;;;7381499;19;20398;-51
2022/07/23 11:29:51;;;;;;;5.70;5.03;;;32.50;44.50;;;;;;7384604;19;20379;-51
2022/07/23 11:32:33;;;;;;;5.73;5.23;;;32.60;44.50;;;;;;7374800;19;20379;-51
2022/07/23 11:35:31;;;;;;;5.57;5.03;;;32.50;43.70;;;;;;7377260;19;20363;-51
2022/07/23 11:38:07;;;;;;;5.80;5.30;;;32.40;45.10;;;;;;7383335;19;20573;-51
2022/07/23 11:40:37;;;;;;;5.93;5.27;;;32.50;44.70;;;;;;7384350;19;20391;-51
2022/07/23 11:43:11;;;;;;;7.80;4.97;;;32.40;44.40;;;;;;7383202;19;20451;-51
2022/07/23 11:45:43;;;;;;;6.53;5.93;;;32.40;44.70;;;;;;7379435;19;20974;-51
2022/07/23 11:48:20;;;;;;;5.67;5.17;;;32.40;45.10;;;;;;7379274;19;20374;-51
2022/07/23 11:50:53;;;;;;;7.70;5.77;;;32.50;45.30;;;;;;7390621;19;20367;-50
2022/07/23 11:53:26;;;;;;;5.73;5.00;;;32.50;45.00;;;;;;7388017;19;20900;-50
2022/07/23 11:56:07;;;;;;;5.63;5.13;;;32.60;45.00;;;;;;7390363;19;20384;-50
2022/07/23 11:58:38;;;;;;;5.80;5.30;;;32.80;45.00;;;;;;7391602;19;20463;-50
2022/07/23 12:01:11;;;;;;;5.70;5.10;;;33.00;44.30;;;;;;7381028;19;20435;-51
2022/07/23 12:03:51;;;;;;;5.13;4.73;;;33.00;44.20;;;;;;7382225;19;20383;-51
2022/07/23 12:06:23;;;;;;;7.07;5.40;;;33.10;43.80;;;;;;7381081;19;20376;-52
2022/07/23 12:08:55;;;;;;;5.27;4.80;;;33.20;44.50;;;;;;7386914;19;20366;-51
2022/07/23 12:11:25;;;;;;;6.00;5.40;;;33.00;44.70;;;;;;7390880;19;20399;-51
2022/07/23 12:13:59;;;;;;;5.57;5.10;;;32.90;43.90;;;;;;7392684;19;20372;-51
2022/07/23 12:16:29;;;;;;;5.43;4.93;;;33.00;43.90;;;;;;7387795;19;20456;-51
2022/07/23 12:18:59;;;;;;;6.43;5.70;;;33.10;44.40;;;;;;7378793;19;20372;-51
2022/07/23 12:21:31;;;;;;;6.33;5.70;;;33.20;44.10;;;;;;7392342;19;20917;-51
2022/07/23 12:24:08;;;;;;;6.80;6.10;;;33.30;43.70;;;;;;7389119;19;20388;-53
2022/07/23 12:26:38;;;;;;;5.30;4.80;;;33.30;43.60;;;;;;7385570;19;20829;-51
2022/07/23 12:29:10;;;;;;;5.50;5.00;;;33.30;44.60;;;;;;7391539;19;20372;-51
2022/07/23 12:31:40;;;;;;;6.03;5.53;;;33.30;44.00;;;;;;7388590;19;20368;-51
2022/07/23 12:34:17;;;;;;;6.77;6.03;;;33.30;43.10;;;;;;7378494;19;20435;-51
2022/07/23 12:36:50;;;;;;;6.10;5.53;;;33.30;43.30;;;;;;7389671;19;20371;-51
2022/07/23 12:39:32;;;;;;;6.00;5.40;;;33.30;42.80;;;;;;7383347;19;20428;-51
2022/07/23 12:42:02;;;;;;;6.40;5.80;;;33.30;43.40;;;;;;7385875;19;20384;-51
2022/07/23 12:44:34;;;;;;;6.17;5.40;;;33.00;42.90;;;;;;7383382;19;20380;-51
2022/07/23 12:47:07;;;;;;;6.60;5.90;;;33.10;44.00;;;;;;7387076;19;20399;-51
2022/07/23 12:49:39;;;;;;;6.47;5.93;;;33.20;43.00;;;;;;7380962;19;20380;-51
2022/07/23 12:52:20;;;;;;;6.07;5.50;;;33.20;43.30;;;;;;7386517;19;20428;-51
2022/07/23 12:54:50;;;;;;;6.23;5.63;;;33.10;43.10;;;;;;7366405;19;20393;-51
2022/07/23 12:57:22;;;;;;;5.47;4.97;;;33.00;44.20;;;;;;7369958;19;20372;-51
2022/07/23 12:59:53;;;;;;;6.30;5.80;;;33.00;44.60;;;;;;7361758;19;20508;-51
2022/07/23 13:02:23;;;;;;;6.77;6.20;;;32.80;44.50;;;;;;7375598;19;20377;-51
2022/07/23 13:04:52;;;;;;;6.40;5.80;;;32.60;44.90;;;;;;7369511;19;20393;-51
2022/07/23 13:07:24;;;;;;;7.33;5.87;;;32.50;45.30;;;;;;7389530;19;20914;-51
2022/07/23 13:09:54;;;;;;;8.63;6.37;;;32.30;45.00;;;;;;7380856;19;20791;-51
2022/07/23 13:12:23;;;;;;;5.27;4.70;;;32.20;45.00;;;;;;7369245;19;20376;-51
2022/07/23 13:14:52;;;;;;;6.70;6.00;;;32.20;46.30;;;;;;7363318;19;20369;-51
2022/07/23 13:17:22;;;;;;;6.30;5.40;;;32.10;45.30;;;;;;7345697;19;20599;-51